createdAt,value
2022-08-05T00:01:20.521Z,99547.47
2022-08-05T00:04:00.035Z,99547.50
2022-08-05T00:06:36.147Z,99550.03
2022-08-05T00:09:12.841Z,99548.97
2022-08-05T00:11:49.177Z,99547.94
2022-08-05T00:14:29.283Z,99548.16
2022-08-05T00:17:02.980Z,99546.88
2022-08-05T00:19:45.585Z,99545.25
2022-08-05T00:22:30.211Z,99546.06
2022-08-05T00:25:02.322Z,99542.53
2022-08-05T00:27:39.610Z,99536.25
2022-08-05T00:30:15.159Z,99543.34
2022-08-05T00:32:45.754Z,99544.41
2022-08-05T00:35:17.360Z,99544.81
2022-08-05T00:37:57.181Z,99538.97
2022-08-05T00:40:29.540Z,99543.78
2022-08-05T00:43:02.132Z,99533.09
2022-08-05T00:45:38.325Z,99548.16
2022-08-05T00:48:27.416Z,99551.06
2022-08-05T00:51:09.042Z,99549.34
2022-08-05T00:54:02.255Z,99541.84
2022-08-05T00:56:36.901Z,99538.28
2022-08-05T00:59:09.727Z,99513.81
2022-08-05T01:01:48.645Z,99531.19
2022-08-05T01:04:26.625Z,99544.13
2022-08-05T01:07:02.513Z,99535.78
2022-08-05T01:09:40.124Z,99544.28
2022-08-05T01:12:23.112Z,99537.19
2022-08-05T01:15:04.135Z,99539.69
2022-08-05T01:17:44.184Z,99531.59
2022-08-05T01:20:22.679Z,99532.81
2022-08-05T01:23:15.196Z,99540.56
2022-08-05T01:26:04.903Z,99533.84
2022-08-05T01:28:50.645Z,99532.19
2022-08-05T01:31:28.265Z,99530.50
2022-08-05T01:34:03.087Z,99530.47
2022-08-05T01:36:42.292Z,99524.47
2022-08-05T01:39:47.252Z,99520.91
2022-08-05T01:42:15.323Z,99517.53
2022-08-05T01:44:54.309Z,99521.28
2022-08-05T01:47:38.785Z,99533.34
2022-08-05T01:50:16.046Z,99529.78
2022-08-05T01:52:49.939Z,99519.38
2022-08-05T01:55:25.566Z,99526.25
2022-08-05T01:58:29.824Z,99509.25
2022-08-05T02:00:57.844Z,99525.59
2022-08-05T02:03:34.196Z,99532.91
2022-08-05T02:06:24.255Z,99533.09
2022-08-05T02:08:59.696Z,99531.88
2022-08-05T02:11:37.504Z,99536.28
2022-08-05T02:14:17.100Z,99531.84
2022-08-05T02:16:55.203Z,99536.16
2022-08-05T02:19:33.469Z,99530.69
2022-08-05T02:22:25.709Z,99530.94
2022-08-05T02:25:06.492Z,99530.31
2022-08-05T02:27:59.645Z,99526.34
2022-08-05T02:30:51.658Z,99527.63
2022-08-05T02:33:36.233Z,99525.28
2022-08-05T02:36:15.592Z,99523.84
2022-08-05T02:38:53.201Z,99520.56
2022-08-05T02:41:43.039Z,99521.66
2022-08-05T02:44:27.293Z,99524.84
2022-08-05T02:47:01.077Z,99530.50
2022-08-05T02:49:40.668Z,99524.19
2022-08-05T02:52:29.952Z,99529.03
2022-08-05T02:55:05.053Z,99507.75
2022-08-05T02:58:10.177Z,99521.91
2022-08-05T03:00:30.901Z,99530.03
2022-08-05T03:03:10.374Z,99528.28
2022-08-05T03:06:55.816Z,99536.88
2022-08-05T03:08:35.534Z,99523.88
2022-08-05T03:11:56.973Z,99515.94
2022-08-05T03:14:09.397Z,99523.16
2022-08-05T03:16:45.361Z,99531.28
2022-08-05T03:19:33.980Z,99515.44
2022-08-05T03:22:15.998Z,99528.16
2022-08-05T03:24:52.518Z,99532.25
2022-08-05T03:27:29.726Z,99532.78
2022-08-05T03:30:18.326Z,99531.91
2022-08-05T03:32:51.384Z,99543.16
2022-08-05T03:35:23.535Z,99532.81
2022-08-05T03:37:59.810Z,99541.78
2022-08-05T03:40:32.407Z,99534.97
2022-08-05T03:43:58.840Z,99503.81
2022-08-05T03:46:00.302Z,99539.81
2022-08-05T03:48:36.806Z,99540.66
2022-08-05T03:52:38.009Z,99537.94
2022-08-05T03:55:50.588Z,99534.66
2022-08-05T03:57:16.695Z,99542.19
2022-08-05T03:59:57.534Z,99527.28
2022-08-05T04:02:38.245Z,99529.38
2022-08-05T04:05:12.334Z,99522.06
2022-08-05T04:07:57.301Z,99534.38
2022-08-05T04:10:38.147Z,99537.47
2022-08-05T04:13:09.355Z,99533.31
2022-08-05T04:16:02.889Z,99534.19
2022-08-05T04:18:39.156Z,99533.13
2022-08-05T04:21:10.871Z,99532.50
2022-08-05T04:26:40.814Z,99531.88
2022-08-05T04:29:14.746Z,99524.19
2022-08-05T04:34:32.284Z,99526.06
2022-08-05T04:37:03.565Z,99527.78
2022-08-05T04:39:35.450Z,99520.72
2022-08-05T04:42:16.241Z,99518.84
2022-08-05T04:44:47.781Z,99520.09
2022-08-05T04:47:20.016Z,99503.63
2022-08-05T04:50:02.960Z,99509.28
2022-08-05T04:52:41.528Z,99515.34
2022-08-05T04:55:15.440Z,99514.94
2022-08-05T04:57:57.368Z,99508.66
2022-08-05T05:00:29.676Z,99513.44
2022-08-05T05:03:03.928Z,99515.31
2022-08-05T05:06:39.850Z,99513.00
2022-08-05T05:08:30.465Z,99510.69
2022-08-05T05:11:04.220Z,99501.81
2022-08-05T05:13:42.956Z,99510.94
2022-08-05T05:16:19.797Z,99505.47
2022-08-05T05:19:09.190Z,99500.63
2022-08-05T05:21:41.120Z,99500.13
2022-08-05T05:24:11.572Z,99494.44
2022-08-05T05:26:43.209Z,99503.97
2022-08-05T05:29:19.449Z,99496.16
2022-08-05T05:31:52.120Z,99492.72
2022-08-05T05:34:26.605Z,99495.56
2022-08-05T05:36:57.204Z,99492.50
2022-08-05T05:39:34.388Z,99495.97
2022-08-05T05:42:07.346Z,99497.00
2022-08-05T05:44:46.058Z,99497.88
2022-08-05T05:47:22.002Z,99501.13
2022-08-05T05:49:56.744Z,99499.50
2022-08-05T05:52:28.433Z,99493.84
2022-08-05T05:55:07.378Z,99489.16
2022-08-05T05:57:52.862Z,99497.75
2022-08-05T06:00:31.465Z,99505.78
2022-08-05T06:03:28.281Z,99497.97
2022-08-05T06:05:55.538Z,99502.81
2022-08-05T06:08:31.624Z,99501.28
2022-08-05T06:11:04.082Z,99495.31
2022-08-05T06:13:40.870Z,99496.44
2022-08-05T06:16:28.742Z,99502.94
2022-08-05T06:19:05.947Z,99502.34
2022-08-05T06:21:41.749Z,99500.97
2022-08-05T06:24:25.786Z,99496.72
2022-08-05T06:26:57.730Z,99497.91
2022-08-05T06:29:46.437Z,99501.19
2022-08-05T06:32:26.358Z,99507.22
2022-08-05T06:35:05.831Z,99507.00
2022-08-05T06:37:56.225Z,99509.75
2022-08-05T06:40:32.385Z,99511.91
2022-08-05T06:43:02.565Z,99515.72
2022-08-05T06:45:44.429Z,99517.28
2022-08-05T06:48:53.574Z,99514.41
2022-08-05T06:51:22.810Z,99508.03
2022-08-05T06:54:01.891Z,99519.81
2022-08-05T06:56:36.332Z,99517.44
2022-08-05T06:59:09.594Z,99529.56
2022-08-05T07:01:44.867Z,99519.78
2022-08-05T07:04:20.027Z,99521.34
2022-08-05T07:06:53.144Z,99521.19
2022-08-05T07:09:24.928Z,99516.78
2022-08-05T07:11:56.611Z,99519.97
2022-08-05T07:14:49.735Z,99511.16
2022-08-05T07:18:08.337Z,99511.03
2022-08-05T07:20:32.827Z,99526.50
2022-08-05T07:23:25.945Z,99521.09
2022-08-05T07:26:00.966Z,99528.69
2022-08-05T07:28:33.902Z,99523.53
2022-08-05T07:31:04.619Z,99531.69
2022-08-05T07:33:37.358Z,99521.66
2022-08-05T07:36:21.524Z,99525.34
2022-08-05T07:38:55.005Z,99518.28
2022-08-05T07:42:12.976Z,99519.97
2022-08-05T07:44:19.722Z,99510.78
2022-08-05T07:46:50.897Z,99508.13
2022-08-05T07:49:22.000Z,99513.13
2022-08-05T07:51:55.359Z,99512.38
2022-08-05T07:54:31.537Z,99511.69
2022-08-05T07:57:16.927Z,99512.28
2022-08-05T07:59:56.462Z,99510.63
2022-08-05T08:02:30.868Z,99510.63
2022-08-05T08:05:02.115Z,99507.78
2022-08-05T08:07:39.601Z,99504.31
2022-08-05T08:10:26.985Z,99505.22
2022-08-05T08:12:58.558Z,99504.63
2022-08-05T08:16:33.619Z,99497.97
2022-08-05T08:18:21.266Z,99498.31
2022-08-05T08:21:03.134Z,99492.25
2022-08-05T08:24:02.442Z,99493.06
2022-08-05T08:26:29.779Z,99485.81
2022-08-05T08:29:21.780Z,99487.81
2022-08-05T08:31:53.177Z,99488.19
2022-08-05T08:34:30.557Z,99490.16
2022-08-05T08:37:05.022Z,99488.06
2022-08-05T08:39:44.240Z,99485.06
2022-08-05T08:42:34.466Z,99488.06
2022-08-05T08:45:26.562Z,99475.28
2022-08-05T08:48:10.705Z,99485.25
2022-08-05T08:51:22.405Z,99478.63
2022-08-05T08:53:47.125Z,99466.03
2022-08-05T08:56:22.280Z,99478.88
2022-08-05T08:58:54.239Z,99478.91
2022-08-05T09:01:24.691Z,99471.47
2022-08-05T09:04:00.340Z,99481.66
2022-08-05T09:06:32.677Z,99471.16
2022-08-05T09:09:07.260Z,99475.09
2022-08-05T09:11:51.525Z,99474.06
2022-08-05T09:14:58.769Z,99467.84
2022-08-05T09:17:40.737Z,99458.00
2022-08-05T09:20:36.709Z,99455.06
2022-08-05T09:23:09.577Z,99453.22
2022-08-05T09:26:02.122Z,99446.38
2022-08-05T09:28:35.193Z,99454.78
2022-08-05T09:31:22.890Z,99450.94
2022-08-05T09:34:01.790Z,99419.97
2022-08-05T09:36:54.096Z,99442.03
2022-08-05T09:39:45.908Z,99425.94
2022-08-05T09:42:23.920Z,99432.75
2022-08-05T09:46:05.155Z,99433.91
2022-08-05T09:48:00.740Z,99441.22
2022-08-05T09:50:44.585Z,99431.25
2022-08-05T09:53:25.794Z,99429.63
2022-08-05T09:56:13.275Z,99415.41
2022-08-05T09:58:43.809Z,99406.69
2022-08-05T10:01:32.440Z,99409.97
2022-08-05T10:04:10.243Z,99406.06
2022-08-05T10:06:59.454Z,99395.97
2022-08-05T10:09:45.246Z,99393.34
2022-08-05T10:12:30.562Z,99384.63
2022-08-05T10:15:16.952Z,99397.16
2022-08-05T10:18:22.566Z,99393.31
2022-08-05T10:20:54.789Z,99382.50
2022-08-05T10:23:55.450Z,99358.41
2022-08-05T10:26:17.250Z,99370.16
2022-08-05T10:28:51.565Z,99372.06
2022-08-05T10:32:53.400Z,99348.69
2022-08-05T10:34:25.857Z,99372.13
2022-08-05T10:37:02.817Z,99373.25
2022-08-05T10:40:03.116Z,99366.59
2022-08-05T10:42:33.673Z,99370.06
2022-08-05T10:45:21.076Z,99371.84
2022-08-05T10:48:30.230Z,99369.38
2022-08-05T10:51:21.649Z,99375.69
2022-08-05T10:54:02.013Z,99356.22
2022-08-05T10:56:53.155Z,99367.09
2022-08-05T11:00:02.841Z,99357.28
2022-08-05T11:02:37.586Z,99348.69
2022-08-05T11:05:12.020Z,99255.56
2022-08-05T11:08:03.089Z,99339.41
2022-08-05T11:10:50.253Z,99332.25
2022-08-05T11:13:59.369Z,99325.66
2022-08-05T11:16:47.764Z,99314.81
2022-08-05T11:20:10.665Z,99325.59
2022-08-05T11:22:42.376Z,99332.81
2022-08-05T11:26:04.518Z,99322.34
2022-08-05T11:28:43.167Z,99324.56
2022-08-05T11:31:57.115Z,99332.22
2022-08-05T11:34:36.672Z,99324.28
2022-08-05T11:38:28.778Z,99314.41
2022-08-05T11:40:02.660Z,99318.31
2022-08-05T11:42:37.825Z,99308.09
2022-08-05T11:45:14.376Z,99305.13
2022-08-05T11:48:00.746Z,99314.97
2022-08-05T11:50:38.472Z,99290.66
2022-08-05T11:53:09.809Z,99306.94
2022-08-05T11:55:54.515Z,99291.00
2022-08-05T11:58:35.084Z,99288.47
2022-08-05T12:01:08.530Z,99295.44
2022-08-05T12:03:55.763Z,99290.75
2022-08-05T12:06:29.552Z,99275.88
2022-08-05T12:09:00.976Z,99282.56
2022-08-05T12:11:39.772Z,99261.63
2022-08-05T12:18:00.702Z,99273.75
2022-08-05T12:20:25.655Z,99271.00
2022-08-05T12:23:10.341Z,99274.84
2022-08-05T12:25:57.106Z,99267.69
2022-08-05T12:28:34.614Z,99269.34
2022-08-05T12:31:07.022Z,99275.94
2022-08-05T12:33:39.057Z,99262.72
2022-08-05T12:36:13.511Z,99255.84
2022-08-05T12:38:46.389Z,99250.91
2022-08-05T12:41:17.283Z,99255.59
2022-08-05T12:43:53.808Z,99249.50
2022-08-05T12:46:29.011Z,99246.47
2022-08-05T12:49:13.086Z,99246.19
2022-08-05T12:52:12.955Z,99239.84
2022-08-05T12:54:38.430Z,99245.91
2022-08-05T12:57:10.772Z,99250.03
2022-08-05T13:01:56.894Z,99235.72
2022-08-05T13:02:40.116Z,99234.66
2022-08-05T13:05:14.546Z,99240.16
2022-08-05T13:07:59.133Z,99207.41
2022-08-05T13:10:33.491Z,99232.16
2022-08-05T13:13:08.864Z,99227.19
2022-08-05T13:15:50.830Z,99225.81
2022-08-05T13:18:21.317Z,99220.06
2022-08-05T13:20:55.398Z,99228.31
2022-08-05T13:23:26.937Z,99217.03
2022-08-05T13:25:59.228Z,99214.28
2022-08-05T13:28:32.276Z,99218.41
2022-08-05T13:31:11.231Z,99206.84
2022-08-05T13:34:21.872Z,99213.44
2022-08-05T13:36:36.660Z,99207.09
2022-08-05T13:40:13.099Z,99213.41
2022-08-05T13:41:58.301Z,99213.13
2022-08-05T13:44:29.319Z,99218.09
2022-08-05T13:47:02.456Z,99217.25
2022-08-05T13:49:38.477Z,99204.63
2022-08-05T13:52:19.471Z,99204.88
2022-08-05T13:54:59.717Z,99195.53
2022-08-05T13:57:50.988Z,99193.34
2022-08-05T14:00:26.894Z,99186.19
2022-08-05T14:02:58.224Z,99175.47
2022-08-05T14:06:24.661Z,99187.84
2022-08-05T14:08:27.671Z,99191.63
2022-08-05T14:11:03.088Z,99177.88
2022-08-05T14:13:48.704Z,99179.59
2022-08-05T14:16:25.414Z,99178.19
2022-08-05T14:18:55.339Z,99171.06
2022-08-05T14:22:08.164Z,99186.72
2022-08-05T14:24:19.483Z,99178.47
2022-08-05T14:27:02.277Z,99179.31
2022-08-05T14:29:40.089Z,99178.47
2022-08-05T14:32:15.020Z,99169.41
2022-08-05T14:34:46.003Z,99172.97
2022-08-05T14:37:17.226Z,99170.47
2022-08-05T14:39:50.284Z,99167.72
2022-08-05T14:42:26.773Z,99169.94
2022-08-05T14:44:56.858Z,99165.81
2022-08-05T14:48:03.543Z,99168.56
2022-08-05T14:50:19.319Z,99163.31
2022-08-05T14:52:53.589Z,99160.31
2022-08-05T14:55:38.952Z,99164.72
2022-08-05T14:58:13.874Z,99165.28
2022-08-05T15:00:58.300Z,99159.78
2022-08-05T15:03:33.950Z,99160.31
2022-08-05T15:06:15.207Z,99153.47
2022-08-05T15:09:01.173Z,99152.63
2022-08-05T15:11:51.611Z,99160.88
2022-08-05T15:14:35.905Z,99157.03
2022-08-05T15:17:44.390Z,99157.00
2022-08-05T15:20:01.411Z,99156.47
2022-08-05T15:22:31.483Z,99163.88
2022-08-05T15:25:13.817Z,99163.06
2022-08-05T15:27:52.247Z,99158.06
2022-08-05T15:30:23.548Z,99154.22
2022-08-05T15:32:55.555Z,99158.03
2022-08-05T15:35:27.503Z,99143.47
2022-08-05T15:38:33.441Z,99152.25
2022-08-05T15:41:04.090Z,99139.34
2022-08-05T15:43:47.892Z,99143.78
2022-08-05T15:46:18.103Z,99133.63
2022-08-05T15:48:53.094Z,99129.22
2022-08-05T15:52:12.494Z,99130.34
2022-08-05T15:54:21.927Z,99131.97
2022-08-05T15:57:07.692Z,99133.34
2022-08-05T15:59:39.810Z,99135.00
2022-08-05T16:02:14.866Z,99126.75
2022-08-05T16:04:50.309Z,99129.22
2022-08-05T16:07:21.333Z,99127.56
2022-08-05T16:09:52.995Z,99109.69
2022-08-05T16:12:24.987Z,99133.34
2022-08-05T16:14:57.024Z,99139.97
2022-08-05T16:17:26.980Z,99125.91
2022-08-05T16:20:05.265Z,99143.22
2022-08-05T16:22:42.269Z,99133.00
2022-08-05T16:25:13.224Z,99134.34
2022-08-05T16:28:00.340Z,99140.41
2022-08-05T16:30:36.071Z,99130.25
2022-08-05T16:33:06.302Z,99134.34
2022-08-05T16:35:42.066Z,99140.13
2022-08-05T16:38:18.575Z,99132.97
2022-08-05T16:41:00.109Z,99137.59
2022-08-05T16:43:32.251Z,99138.16
2022-08-05T16:46:13.057Z,99113.59
2022-08-05T16:48:55.684Z,99147.47
2022-08-05T16:51:30.720Z,99148.00
2022-08-05T16:54:05.366Z,99152.34
2022-08-05T16:56:44.698Z,99152.88
2022-08-05T16:59:16.698Z,99150.94
2022-08-05T17:01:53.837Z,99157.81
2022-08-05T17:04:28.465Z,99159.72
2022-08-05T17:07:01.874Z,99166.31
2022-08-05T17:09:57.469Z,99166.53
2022-08-05T17:12:51.485Z,99161.84
2022-08-05T17:15:15.597Z,99163.47
2022-08-05T17:17:55.101Z,99154.13
2022-08-05T17:20:26.688Z,99164.53
2022-08-05T17:22:57.553Z,99160.13
2022-08-05T17:25:39.421Z,99172.44
2022-08-05T17:28:10.538Z,99170.25
2022-08-05T17:30:52.138Z,99176.28
2022-08-05T17:33:23.761Z,99165.84
2022-08-05T17:36:08.623Z,99172.44
2022-08-05T17:38:44.321Z,99175.69
2022-08-05T17:42:17.396Z,99177.88
2022-08-05T17:44:06.581Z,99178.69
2022-08-05T17:46:41.104Z,99183.28
2022-08-05T17:49:14.890Z,99183.78
2022-08-05T17:51:44.908Z,99188.69
2022-08-05T17:54:17.381Z,99191.97
2022-08-05T17:56:55.487Z,99195.00
2022-08-05T17:59:28.592Z,99195.50
2022-08-05T18:01:58.840Z,99191.63
2022-08-05T18:04:31.947Z,99200.41
2022-08-05T18:07:02.864Z,99189.91
2022-08-05T18:09:59.543Z,99211.34
2022-08-05T18:12:24.471Z,99209.41
2022-08-05T18:14:56.068Z,99208.28
2022-08-05T18:18:00.440Z,99221.44
2022-08-05T18:20:19.689Z,99215.88
2022-08-05T18:23:00.739Z,99231.81
2022-08-05T18:25:45.000Z,99233.66
2022-08-05T18:28:17.639Z,99236.66
2022-08-05T18:30:52.501Z,99239.97
2022-08-05T18:33:24.181Z,99255.59
2022-08-05T18:36:03.983Z,99249.78
2022-08-05T18:38:36.336Z,99244.81
2022-08-05T18:41:56.634Z,99252.50
2022-08-05T18:43:57.542Z,99248.25
2022-08-05T18:46:36.338Z,99250.19
2022-08-05T18:49:20.937Z,99249.34
2022-08-05T18:52:10.961Z,99246.25
2022-08-05T18:54:41.194Z,99231.53
2022-08-05T18:57:17.987Z,99262.97
2022-08-05T19:00:02.524Z,99267.56
2022-08-05T19:02:34.047Z,99267.22
2022-08-05T19:06:06.982Z,99266.31
2022-08-05T19:07:58.242Z,99269.59
2022-08-05T19:10:30.365Z,99255.50
2022-08-05T19:13:00.997Z,99268.44
2022-08-05T19:15:58.229Z,99267.88
2022-08-05T19:18:24.313Z,99265.06
2022-08-05T19:20:54.266Z,99260.84
2022-08-05T19:24:06.562Z,99262.13
2022-08-05T19:26:16.870Z,99255.00
2022-08-05T19:28:47.720Z,99258.25
2022-08-05T19:31:21.411Z,99251.94
2022-08-05T19:33:56.928Z,99249.19
2022-08-05T19:36:29.147Z,99250.53
2022-08-05T19:39:02.247Z,99249.66
2022-08-05T19:42:05.690Z,99248.44
2022-08-05T19:44:24.700Z,99250.63
2022-08-05T19:46:59.635Z,99246.47
2022-08-05T19:49:29.959Z,99253.78
2022-08-05T19:52:08.545Z,99252.88
2022-08-05T19:54:52.407Z,99257.94
2022-08-05T19:57:46.322Z,99257.53
2022-08-05T20:00:13.479Z,99254.25
2022-08-05T20:02:44.058Z,99254.50
2022-08-05T20:05:24.398Z,99248.00
2022-08-05T20:07:58.887Z,99250.19
2022-08-05T20:10:30.910Z,99247.44
2022-08-05T20:13:03.352Z,99248.19
2022-08-05T20:15:52.134Z,99249.28
2022-08-05T20:18:33.681Z,99251.63
2022-08-05T20:21:07.022Z,99247.41
2022-08-05T20:23:40.686Z,99243.09
2022-08-05T20:26:23.329Z,99241.03
2022-08-05T20:28:56.212Z,99244.34
2022-08-05T20:31:42.727Z,99251.97
2022-08-05T20:34:18.727Z,99244.50
2022-08-05T20:36:50.074Z,99251.28
2022-08-05T20:39:20.020Z,99254.78
2022-08-05T20:41:51.277Z,99253.59
2022-08-05T20:44:30.697Z,99252.78
2022-08-05T20:47:03.555Z,99250.56
2022-08-05T20:49:39.569Z,99254.84
2022-08-05T20:52:10.760Z,99250.84
2022-08-05T20:54:59.532Z,99257.16
2022-08-05T20:57:43.439Z,99268.59
2022-08-05T21:00:41.339Z,99258.81
2022-08-05T21:03:08.361Z,99220.03
2022-08-05T21:05:53.505Z,99252.44
2022-08-05T21:08:26.860Z,99258.84
2022-08-05T21:11:09.095Z,99260.63
2022-08-05T21:13:47.431Z,99260.88
2022-08-05T21:16:29.509Z,99260.88
2022-08-05T21:19:02.234Z,99254.72
2022-08-05T21:21:39.654Z,99263.63
2022-08-05T21:24:20.491Z,99262.53
2022-08-05T21:26:53.452Z,99266.34
2022-08-05T21:29:31.397Z,99271.94
2022-08-05T21:32:03.577Z,99274.81
2022-08-05T21:34:35.513Z,99274.25
2022-08-05T21:37:08.094Z,99271.84
2022-08-05T21:39:38.431Z,99277.81
2022-08-05T21:42:19.731Z,99279.34
2022-08-05T21:45:02.611Z,99277.22
2022-08-05T21:47:56.432Z,99279.84
2022-08-05T21:50:23.686Z,99288.16
2022-08-05T21:52:53.598Z,99282.06
2022-08-05T21:56:01.645Z,99288.16
2022-08-05T21:58:19.750Z,99284.94
2022-08-05T22:00:51.758Z,99279.69
2022-08-05T22:03:51.872Z,99276.25
2022-08-05T22:06:12.341Z,99272.84
2022-08-05T22:08:42.715Z,99279.13
2022-08-05T22:11:15.498Z,99270.69
2022-08-05T22:14:33.883Z,99257.28
2022-08-05T22:16:41.693Z,99274.13
2022-08-05T22:20:00.579Z,99279.47
2022-08-05T22:22:10.802Z,99265.72
2022-08-05T22:24:59.459Z,99265.47
2022-08-05T22:28:09.595Z,99268.78
2022-08-05T22:30:37.518Z,99261.06
2022-08-05T22:33:56.996Z,99269.13
2022-08-05T22:36:16.955Z,99267.59
2022-08-05T22:38:48.652Z,99268.53
2022-08-05T22:41:26.453Z,99269.38
2022-08-05T22:44:09.740Z,99273.41
2022-08-05T22:46:42.316Z,99253.22
2022-08-05T22:50:16.343Z,99260.84
2022-08-05T22:52:15.487Z,99258.44
2022-08-05T22:54:56.889Z,99263.09
2022-08-05T22:57:26.926Z,99271.25
2022-08-05T23:00:05.383Z,99267.69
2022-08-05T23:02:39.963Z,99252.69
2022-08-05T23:05:18.940Z,99242.38
2022-08-05T23:07:52.739Z,99270.91
2022-08-05T23:10:24.283Z,99275.03
2022-08-05T23:12:56.021Z,99268.22
2022-08-05T23:15:29.650Z,99270.59
2022-08-05T23:18:06.025Z,99268.09
2022-08-05T23:20:47.253Z,99272.09
2022-08-05T23:23:19.261Z,99261.81
2022-08-05T23:25:52.619Z,99261.47
2022-08-05T23:28:27.750Z,99256.59
2022-08-05T23:31:16.683Z,99265.13
2022-08-05T23:34:04.518Z,99254.13
2022-08-05T23:36:41.549Z,99256.69
2022-08-05T23:39:17.430Z,99254.66
2022-08-05T23:41:56.469Z,99253.38
2022-08-05T23:44:27.993Z,99258.72
2022-08-05T23:47:02.432Z,99252.00
2022-08-05T23:49:45.553Z,99249.75
2022-08-05T23:52:30.538Z,99248.47
2022-08-05T23:55:02.607Z,99241.69
2022-08-05T23:57:36.658Z,99225.63
